Northfield, MN (55057)

4:31 AM CDT on September 03, 2015 (GMT -0500)
Downtown Northfield - KYMN Radio | | Change Station
CLOSE
Current Station
Personal Weather Station
Location: Northfield, MN
Elevation: 902 ft
Nearby Weather Stations
Active Advisory: Special Statement

Elev 902 ft 44.46 °N, 93.16 °W | Updated 2 minutes ago

Fog
Fog
66.6 °F
Feels Like 66.6 °F
N
0.0
Wind Variable Wind from NNW

Today
High -- | Low -- °F
--% Chance of Precip.
Yesterday
High -- | Low -- °F
Precip. -- in
6:37 AM 7:45 PM
Waning Gibbous, 72% visible
Pressure 29.89 in
Visibility 0.2 miles
Clouds Overcast 100 ft
Dew Point 65 °F
Humidity 96%
Rainfall 0.00 in
Snow Depth Not available.
UV 0 out of 12
Pollen 9.20 out of 12
Air Quality Not available.
Flu Activity Not available.
METAR KSYN 030913Z AUTO 00000KT M1/4SM FG OVC001 19/18 A2989 RMK AO2 T01910181
Pressure 29.89 in
Visibility 0.2 miles
Clouds Overcast 100 ft
Dew Point 65 °F
Humidity 96%
Rainfall 0.00 in
Snow Depth Not available.
UV 0 out of 12
Pollen 9.20 out of 12
Air Quality Not available.
Flu Activity Not available.
METAR KSYN 030913Z AUTO 00000KT M1/4SM FG OVC001 19/18 A2989 RMK AO2 T01910181

10-Day Weather Forecast

×

Almanac

Astronomy

Sep. 03, 2015 Rise Set
Actual Time
Civil Twilight
Nautical Twilight
Astronomical Twilight
Moon
Length of Visible Light
Length of Day
Tomorrow will be .
, % of the Moon is Illuminated

Today's Extremes

State Highs State Lows

Community

WunderPhotos

Upload Photos

1,851,923 photos uploaded!

WunderBlogs® & News

Nearby

Air Quality

  Air Quality AQ Index Pollutant
Not available.

Snow Depth

Station Depth Elevation

Earthquake Activity

City Distance Mag. Time & Date
Minimum magnitude displayed is 2.5.

Coastal Water Temperatures

Place Temperature

Stations

Nearby Weather Stations

Station Location Temp. Windchill Dew Point Humidity Wind Precip. Elev Updated Type
                   
Special Statement
Statement as of 3:26 AM CDT on September 03, 2015

... Pockets of dense fog this morning...

A few areas of dense fog will continue through the early morning
across southern MN... including I-35.


Jrb

326 am CDT Thu Sep 3 2015

... Pockets of dense fog this morning...

A few areas of dense fog will continue through the early morning
across southern MN... including I-35.


Jrb